Flight Track Log - Related Links

Times and Time Zones

All times are in EDT time to prevent confusion due to time zone crossing. See the HAL110 flight status page for this flight to view local times or setup timezone preferences in your user account.

Time Position Orientation Groundspeed Altitude Reporting Facility
EDT Latitude Longitude Course Direction KTS MPH feet Rate Location/Type
Mon 01:08:04 PM 21.9833 -159.3167 118° Southeast 150 173 1,300  Level Honolulu Center
Mon 01:09:04 PM 21.9500 -159.2667 126° Southeast 210 242 2,900 1,950 Climbing Honolulu Center
Mon 01:10:04 PM 21.9167 -159.2167 126° Southeast 220 253 5,200 2,281 Climbing Honolulu Center
Mon 01:11:00 PM 21.8571 -159.0799 116° Southeast  Level Estimated
Mon 01:11:05 PM 21.8667 -159.1667 137° Southeast 230 265 7,500  Level Honolulu Center
Mon 01:12:00 PM 21.8252 -159.0164 118° Southeast  Level FlightAware Approximate
Mon 01:12:05 PM 21.8333 -159.1000 118° Southeast 280 322 9,100  Level Honolulu Center
Mon 01:13:00 PM 21.7932 -158.9530 118° Southeast  Level FlightAware Approximate
Mon 01:13:05 PM 21.7833 -159.0167 123° Southeast 300 345 10,800  Level Honolulu Center
Mon 01:14:05 PM 21.7333 -158.9333 123° Southeast 340 391 12,400 1,100 Climbing Honolulu Center
Mon 01:15:05 PM 21.6833 -158.8500 123° Southeast 350 403 13,000 300 Climbing Honolulu Center
Mon 01:16:05 PM 21.6333 -158.7667 123° Southeast 350 403 13,000  Level Honolulu Center
Mon 01:17:05 PM 21.5667 -158.6833 131° Southeast 350 403 13,000  Level Honolulu Center
Mon 01:18:06 PM 21.5000 -158.6167 137° Southeast 350 403 13,000 -694 Level Honolulu Center
Mon 01:19:06 PM 21.4333 -158.5333 131° Southeast 350 403 11,600 -1,300 Descending Honolulu Center
Mon 01:20:06 PM 21.3667 -158.4833 145° Southeast 320 368 10,400 -1,400 Descending Honolulu Center
Mon 01:21:06 PM 21.3167 -158.4000 123° Southeast 290 334 8,800 -1,650 Descending Honolulu Center
Mon 01:22:06 PM 21.2833 -158.3333 118° Southeast 290 334 7,100 -1,700 Descending Honolulu Center
Mon 01:23:06 PM 21.2667 -158.2500 102° East 280 322 5,400 -1,700 Descending Honolulu Center
Mon 01:24:06 PM 21.2500 -158.1667 102° East 270 311 3,700 -1,400 Descending Honolulu Center
Mon 01:25:06 PM 21.2167 -158.1000 118° Southeast 230 265 2,600 -1,100 Descending Honolulu Center

Login

Don't have an account? Register now (free) for customized features, flight alerts, and more!